sensor_id;sensor_type;location;lat;lon;timestamp;temperature;humidity
64396;DHT22;50717;53.360;6.290;2022-07-09T00:01:24;16.90;99.90
64396;DHT22;50717;53.360;6.290;2022-07-09T00:03:49;17.00;99.90
64396;DHT22;50717;53.360;6.290;2022-07-09T00:06:17;16.90;99.90
64396;DHT22;50717;53.360;6.290;2022-07-09T00:08:43;16.90;99.90
64396;DHT22;50717;53.360;6.290;2022-07-09T00:11:08;17.10;99.90
64396;DHT22;50717;53.360;6.290;2022-07-09T00:13:34;17.10;99.90
64396;DHT22;50717;53.360;6.290;2022-07-09T00:15:59;17.20;99.90
64396;DHT22;50717;53.360;6.290;2022-07-09T00:18:25;17.20;99.90
64396;DHT22;50717;53.360;6.290;2022-07-09T00:20:50;17.00;99.90
64396;DHT22;50717;53.360;6.290;2022-07-09T00:23:16;17.00;99.90
64396;DHT22;50717;53.360;6.290;2022-07-09T00:25:42;16.90;99.90
64396;DHT22;50717;53.360;6.290;2022-07-09T00:28:07;17.10;99.90
64396;DHT22;50717;53.360;6.290;2022-07-09T00:30:33;17.00;99.90
64396;DHT22;50717;53.360;6.290;2022-07-09T00:32:58;17.10;99.90
64396;DHT22;50717;53.360;6.290;2022-07-09T00:35:24;16.80;99.90
64396;DHT22;50717;53.360;6.290;2022-07-09T00:37:49;17.00;99.90
64396;DHT22;50717;53.360;6.290;2022-07-09T00:40:15;16.80;99.90
64396;DHT22;50717;53.360;6.290;2022-07-09T00:42:41;17.10;99.90
64396;DHT22;50717;53.360;6.290;2022-07-09T00:45:06;16.90;99.90
64396;DHT22;50717;53.360;6.290;2022-07-09T00:47:32;17.10;99.90
64396;DHT22;50717;53.360;6.290;2022-07-09T00:49:57;16.90;99.90
64396;DHT22;50717;53.360;6.290;2022-07-09T00:52:23;17.00;99.90
64396;DHT22;50717;53.360;6.290;2022-07-09T00:54:49;17.20;99.90
64396;DHT22;50717;53.360;6.290;2022-07-09T00:57:15;17.00;99.90
64396;DHT22;50717;53.360;6.290;2022-07-09T00:59:40;17.00;99.90
64396;DHT22;50717;53.360;6.290;2022-07-09T01:02:07;16.80;99.90
64396;DHT22;50717;53.360;6.290;2022-07-09T01:04:33;16.80;99.90
64396;DHT22;50717;53.360;6.290;2022-07-09T01:06:59;16.70;99.90
64396;DHT22;50717;53.360;6.290;2022-07-09T01:09:25;17.30;99.90
64396;DHT22;50717;53.360;6.290;2022-07-09T01:11:51;17.10;99.90
64396;DHT22;50717;53.360;6.290;2022-07-09T01:14:16;17.00;99.90
64396;DHT22;50717;53.360;6.290;2022-07-09T01:16:42;16.90;99.90
64396;DHT22;50717;53.360;6.290;2022-07-09T01:19:08;16.90;99.90
64396;DHT22;50717;53.360;6.290;2022-07-09T01:21:34;17.20;99.90
64396;DHT22;50717;53.360;6.290;2022-07-09T01:24:00;16.90;99.90
64396;DHT22;50717;53.360;6.290;2022-07-09T01:26:25;16.90;99.90
64396;DHT22;50717;53.360;6.290;2022-07-09T01:28:51;16.70;99.90
64396;DHT22;50717;53.360;6.290;2022-07-09T01:31:17;16.80;99.90
64396;DHT22;50717;53.360;6.290;2022-07-09T01:33:42;17.00;99.90
64396;DHT22;50717;53.360;6.290;2022-07-09T01:36:08;19.30;99.90
64396;DHT22;50717;53.360;6.290;2022-07-09T01:38:34;17.00;99.90
64396;DHT22;50717;53.360;6.290;2022-07-09T01:41:00;17.00;99.90
64396;DHT22;50717;53.360;6.290;2022-07-09T01:43:25;17.00;99.90
64396;DHT22;50717;53.360;6.290;2022-07-09T01:45:51;17.10;99.90
64396;DHT22;50717;53.360;6.290;2022-07-09T01:48:17;17.00;99.90
64396;DHT22;50717;53.360;6.290;2022-07-09T01:50:42;16.80;99.90
64396;DHT22;50717;53.360;6.290;2022-07-09T01:53:08;16.90;99.90
64396;DHT22;50717;53.360;6.290;2022-07-09T01:55:33;17.00;99.90
64396;DHT22;50717;53.360;6.290;2022-07-09T01:57:59;16.90;99.90
64396;DHT22;50717;53.360;6.290;2022-07-09T02:00:24;16.70;99.90
64396;DHT22;50717;53.360;6.290;2022-07-09T02:02:53;17.00;99.90
64396;DHT22;50717;53.360;6.290;2022-07-09T02:05:19;17.10;99.90
64396;DHT22;50717;53.360;6.290;2022-07-09T02:07:44;17.00;99.90
64396;DHT22;50717;53.360;6.290;2022-07-09T02:10:10;16.90;99.90
64396;DHT22;50717;53.360;6.290;2022-07-09T02:12:36;17.10;99.90
64396;DHT22;50717;53.360;6.290;2022-07-09T02:15:01;17.00;99.90
64396;DHT22;50717;53.360;6.290;2022-07-09T02:17:27;17.00;99.90
64396;DHT22;50717;53.360;6.290;2022-07-09T02:19:52;16.90;99.90
64396;DHT22;50717;53.360;6.290;2022-07-09T02:22:18;17.00;99.90
64396;DHT22;50717;53.360;6.290;2022-07-09T02:24:43;16.70;99.90
64396;DHT22;50717;53.360;6.290;2022-07-09T02:27:09;17.30;99.90
64396;DHT22;50717;53.360;6.290;2022-07-09T02:29:35;16.80;99.90
64396;DHT22;50717;53.360;6.290;2022-07-09T02:32:00;16.90;99.90
64396;DHT22;50717;53.360;6.290;2022-07-09T02:34:26;17.00;99.90
64396;DHT22;50717;53.360;6.290;2022-07-09T02:36:51;16.90;99.90
64396;DHT22;50717;53.360;6.290;2022-07-09T02:39:17;16.70;99.90
64396;DHT22;50717;53.360;6.290;2022-07-09T02:41:43;16.80;99.90
64396;DHT22;50717;53.360;6.290;2022-07-09T02:44:09;16.70;99.90
64396;DHT22;50717;53.360;6.290;2022-07-09T02:46:34;16.70;99.90
64396;DHT22;50717;53.360;6.290;2022-07-09T02:49:00;16.70;99.90
64396;DHT22;50717;53.360;6.290;2022-07-09T02:51:25;16.80;99.90
64396;DHT22;50717;53.360;6.290;2022-07-09T02:53:51;16.70;99.90
64396;DHT22;50717;53.360;6.290;2022-07-09T02:56:16;17.00;99.90
64396;DHT22;50717;53.360;6.290;2022-07-09T02:58:42;16.80;99.90
64396;DHT22;50717;53.360;6.290;2022-07-09T03:01:07;16.80;99.90
64396;DHT22;50717;53.360;6.290;2022-07-09T03:03:33;16.80;99.90
64396;DHT22;50717;53.360;6.290;2022-07-09T03:06:01;16.60;99.90
64396;DHT22;50717;53.360;6.290;2022-07-09T03:08:27;16.70;99.90
64396;DHT22;50717;53.360;6.290;2022-07-09T03:10:52;16.60;99.90
64396;DHT22;50717;53.360;6.290;2022-07-09T03:13:18;16.70;99.90
64396;DHT22;50717;53.360;6.290;2022-07-09T03:15:43;16.20;99.90
64396;DHT22;50717;53.360;6.290;2022-07-09T03:18:09;16.40;99.90
64396;DHT22;50717;53.360;6.290;2022-07-09T03:20:35;16.40;99.90
64396;DHT22;50717;53.360;6.290;2022-07-09T03:23:01;16.40;99.90
64396;DHT22;50717;53.360;6.290;2022-07-09T03:25:27;16.40;99.90
64396;DHT22;50717;53.360;6.290;2022-07-09T03:27:53;16.50;99.90
64396;DHT22;50717;53.360;6.290;2022-07-09T03:30:18;16.40;99.90
64396;DHT22;50717;53.360;6.290;2022-07-09T03:32:44;16.70;99.90
64396;DHT22;50717;53.360;6.290;2022-07-09T03:35:10;16.30;99.90
64396;DHT22;50717;53.360;6.290;2022-07-09T03:37:35;16.00;99.90
64396;DHT22;50717;53.360;6.290;2022-07-09T03:40:01;16.40;99.90
64396;DHT22;50717;53.360;6.290;2022-07-09T03:42:27;16.80;99.90
64396;DHT22;50717;53.360;6.290;2022-07-09T03:44:53;16.50;99.90
64396;DHT22;50717;53.360;6.290;2022-07-09T03:47:18;16.30;99.90
64396;DHT22;50717;53.360;6.290;2022-07-09T03:49:44;16.50;99.90
64396;DHT22;50717;53.360;6.290;2022-07-09T03:52:10;16.60;99.90
64396;DHT22;50717;53.360;6.290;2022-07-09T03:54:35;16.50;99.90
64396;DHT22;50717;53.360;6.290;2022-07-09T03:57:01;16.30;99.90
64396;DHT22;50717;53.360;6.290;2022-07-09T03:59:26;16.50;99.90
64396;DHT22;50717;53.360;6.290;2022-07-09T04:01:52;16.70;99.90
64396;DHT22;50717;53.360;6.290;2022-07-09T04:04:17;16.80;99.90
64396;DHT22;50717;53.360;6.290;2022-07-09T04:06:43;16.50;99.90
64396;DHT22;50717;53.360;6.290;2022-07-09T04:09:08;16.40;99.90
64396;DHT22;50717;53.360;6.290;2022-07-09T04:11:34;16.30;99.90
64396;DHT22;50717;53.360;6.290;2022-07-09T04:14:00;16.40;99.90
64396;DHT22;50717;53.360;6.290;2022-07-09T04:16:26;16.70;99.90
64396;DHT22;50717;53.360;6.290;2022-07-09T04:18:52;16.50;99.90
64396;DHT22;50717;53.360;6.290;2022-07-09T04:21:17;16.40;99.90
64396;DHT22;50717;53.360;6.290;2022-07-09T04:23:43;16.20;99.90
64396;DHT22;50717;53.360;6.290;2022-07-09T04:26:08;16.00;99.90
64396;DHT22;50717;53.360;6.290;2022-07-09T04:28:37;16.40;99.90
64396;DHT22;50717;53.360;6.290;2022-07-09T04:31:03;16.50;99.90
64396;DHT22;50717;53.360;6.290;2022-07-09T04:33:29;16.70;99.90
64396;DHT22;50717;53.360;6.290;2022-07-09T04:35:55;16.70;99.90
64396;DHT22;50717;53.360;6.290;2022-07-09T04:38:20;16.70;99.90
64396;DHT22;50717;53.360;6.290;2022-07-09T04:40:46;16.80;99.90
64396;DHT22;50717;53.360;6.290;2022-07-09T04:43:12;17.00;99.90
64396;DHT22;50717;53.360;6.290;2022-07-09T04:45:37;17.00;99.90
64396;DHT22;50717;53.360;6.290;2022-07-09T04:48:03;16.80;99.90
64396;DHT22;50717;53.360;6.290;2022-07-09T04:50:29;17.10;99.90
64396;DHT22;50717;53.360;6.290;2022-07-09T04:52:54;16.80;99.90
64396;DHT22;50717;53.360;6.290;2022-07-09T04:55:20;16.70;99.90
64396;DHT22;50717;53.360;6.290;2022-07-09T04:57:47;17.10;99.90
64396;DHT22;50717;53.360;6.290;2022-07-09T05:00:12;17.50;99.90
64396;DHT22;50717;53.360;6.290;2022-07-09T05:02:38;17.20;99.90
64396;DHT22;50717;53.360;6.290;2022-07-09T05:05:04;16.90;99.90
64396;DHT22;50717;53.360;6.290;2022-07-09T05:07:31;17.20;99.90
64396;DHT22;50717;53.360;6.290;2022-07-09T05:09:57;17.10;99.90
64396;DHT22;50717;53.360;6.290;2022-07-09T05:12:23;17.10;99.90
64396;DHT22;50717;53.360;6.290;2022-07-09T05:14:48;16.90;99.90
64396;DHT22;50717;53.360;6.290;2022-07-09T05:17:14;17.20;99.90
64396;DHT22;50717;53.360;6.290;2022-07-09T05:19:40;17.90;99.90
64396;DHT22;50717;53.360;6.290;2022-07-09T05:22:05;17.10;99.90
64396;DHT22;50717;53.360;6.290;2022-07-09T05:24:31;17.20;99.90
64396;DHT22;50717;53.360;6.290;2022-07-09T05:26:56;17.40;99.90
64396;DHT22;50717;53.360;6.290;2022-07-09T05:29:22;17.70;99.90
64396;DHT22;50717;53.360;6.290;2022-07-09T05:31:48;17.70;99.90
64396;DHT22;50717;53.360;6.290;2022-07-09T05:34:15;17.30;99.90
64396;DHT22;50717;53.360;6.290;2022-07-09T05:36:40;17.40;99.90
64396;DHT22;50717;53.360;6.290;2022-07-09T05:39:06;17.70;99.90
64396;DHT22;50717;53.360;6.290;2022-07-09T05:41:32;17.50;99.90
64396;DHT22;50717;53.360;6.290;2022-07-09T05:43:58;17.40;99.90
64396;DHT22;50717;53.360;6.290;2022-07-09T05:46:24;17.70;99.90
64396;DHT22;50717;53.360;6.290;2022-07-09T05:48:49;17.40;99.90
64396;DHT22;50717;53.360;6.290;2022-07-09T05:51:16;17.60;99.90
64396;DHT22;50717;53.360;6.290;2022-07-09T05:53:41;17.30;99.90
64396;DHT22;50717;53.360;6.290;2022-07-09T05:56:07;17.50;99.90
64396;DHT22;50717;53.360;6.290;2022-07-09T05:58:32;17.60;99.90
64396;DHT22;50717;53.360;6.290;2022-07-09T06:00:58;17.70;99.90
64396;DHT22;50717;53.360;6.290;2022-07-09T06:03:24;17.50;99.90
64396;DHT22;50717;53.360;6.290;2022-07-09T06:05:49;17.80;99.90
64396;DHT22;50717;53.360;6.290;2022-07-09T06:08:15;17.80;99.90
64396;DHT22;50717;53.360;6.290;2022-07-09T06:10:40;17.80;99.90
64396;DHT22;50717;53.360;6.290;2022-07-09T06:13:06;18.10;99.90
64396;DHT22;50717;53.360;6.290;2022-07-09T06:15:31;17.90;99.90
64396;DHT22;50717;53.360;6.290;2022-07-09T06:17:57;18.20;99.90
64396;DHT22;50717;53.360;6.290;2022-07-09T06:20:22;18.10;99.90
64396;DHT22;50717;53.360;6.290;2022-07-09T06:22:48;18.00;99.90
64396;DHT22;50717;53.360;6.290;2022-07-09T06:25:14;17.70;99.90
64396;DHT22;50717;53.360;6.290;2022-07-09T06:27:39;17.70;99.90
64396;DHT22;50717;53.360;6.290;2022-07-09T06:30:08;18.10;99.90
64396;DHT22;50717;53.360;6.290;2022-07-09T06:32:34;17.70;99.90
64396;DHT22;50717;53.360;6.290;2022-07-09T06:35:00;17.80;99.90
64396;DHT22;50717;53.360;6.290;2022-07-09T06:37:25;18.00;99.90
64396;DHT22;50717;53.360;6.290;2022-07-09T06:39:51;17.70;99.90
64396;DHT22;50717;53.360;6.290;2022-07-09T06:42:20;17.70;99.90
64396;DHT22;50717;53.360;6.290;2022-07-09T06:44:46;18.10;99.90
64396;DHT22;50717;53.360;6.290;2022-07-09T06:47:12;17.80;99.90
64396;DHT22;50717;53.360;6.290;2022-07-09T06:49:38;17.80;99.90
64396;DHT22;50717;53.360;6.290;2022-07-09T06:52:04;17.90;99.90
64396;DHT22;50717;53.360;6.290;2022-07-09T06:54:30;18.10;99.90
64396;DHT22;50717;53.360;6.290;2022-07-09T06:56:56;18.10;99.90
64396;DHT22;50717;53.360;6.290;2022-07-09T06:59:24;18.10;99.90
64396;DHT22;50717;53.360;6.290;2022-07-09T07:01:50;17.80;99.90
64396;DHT22;50717;53.360;6.290;2022-07-09T07:04:15;18.30;99.90
64396;DHT22;50717;53.360;6.290;2022-07-09T07:06:42;18.30;99.90
64396;DHT22;50717;53.360;6.290;2022-07-09T07:09:08;18.40;99.90
64396;DHT22;50717;53.360;6.290;2022-07-09T07:11:33;18.50;99.90
64396;DHT22;50717;53.360;6.290;2022-07-09T07:13:59;18.10;99.90
64396;DHT22;50717;53.360;6.290;2022-07-09T07:16:24;18.10;99.90
64396;DHT22;50717;53.360;6.290;2022-07-09T07:18:50;18.10;99.90
64396;DHT22;50717;53.360;6.290;2022-07-09T07:21:16;18.30;99.90
64396;DHT22;50717;53.360;6.290;2022-07-09T07:23:41;18.50;99.90
64396;DHT22;50717;53.360;6.290;2022-07-09T07:26:07;18.20;99.90
64396;DHT22;50717;53.360;6.290;2022-07-09T07:28:33;18.80;99.90
64396;DHT22;50717;53.360;6.290;2022-07-09T07:30:59;18.80;99.90
64396;DHT22;50717;53.360;6.290;2022-07-09T07:33:24;19.10;99.90
64396;DHT22;50717;53.360;6.290;2022-07-09T07:35:50;18.90;99.90
64396;DHT22;50717;53.360;6.290;2022-07-09T07:38:16;19.20;99.90
64396;DHT22;50717;53.360;6.290;2022-07-09T07:40:41;18.80;99.90
64396;DHT22;50717;53.360;6.290;2022-07-09T07:43:09;19.20;99.90
64396;DHT22;50717;53.360;6.290;2022-07-09T07:45:35;19.00;99.90
64396;DHT22;50717;53.360;6.290;2022-07-09T07:48:01;19.10;99.90
64396;DHT22;50717;53.360;6.290;2022-07-09T07:50:26;18.80;99.90
64396;DHT22;50717;53.360;6.290;2022-07-09T07:52:52;18.90;99.90
64396;DHT22;50717;53.360;6.290;2022-07-09T07:55:18;19.10;99.90
64396;DHT22;50717;53.360;6.290;2022-07-09T07:57:43;19.10;99.90
64396;DHT22;50717;53.360;6.290;2022-07-09T08:00:09;18.90;99.90
64396;DHT22;50717;53.360;6.290;2022-07-09T08:02:35;18.80;99.90
64396;DHT22;50717;53.360;6.290;2022-07-09T08:05:00;18.60;99.90
64396;DHT22;50717;53.360;6.290;2022-07-09T08:07:26;18.70;99.90
64396;DHT22;50717;53.360;6.290;2022-07-09T08:09:52;19.00;99.90
64396;DHT22;50717;53.360;6.290;2022-07-09T08:12:18;18.60;99.90
64396;DHT22;50717;53.360;6.290;2022-07-09T08:14:43;18.60;99.90
64396;DHT22;50717;53.360;6.290;2022-07-09T08:17:09;18.40;99.90
64396;DHT22;50717;53.360;6.290;2022-07-09T08:19:35;18.50;99.90
64396;DHT22;50717;53.360;6.290;2022-07-09T08:22:00;18.70;99.90
64396;DHT22;50717;53.360;6.290;2022-07-09T08:24:26;18.60;99.90
64396;DHT22;50717;53.360;6.290;2022-07-09T08:26:52;18.60;99.90
64396;DHT22;50717;53.360;6.290;2022-07-09T08:29:18;18.70;99.90
64396;DHT22;50717;53.360;6.290;2022-07-09T08:31:43;18.80;99.90
64396;DHT22;50717;53.360;6.290;2022-07-09T08:34:09;20.90;99.90
64396;DHT22;50717;53.360;6.290;2022-07-09T08:36:34;19.30;99.90
64396;DHT22;50717;53.360;6.290;2022-07-09T08:39:00;19.50;99.90
64396;DHT22;50717;53.360;6.290;2022-07-09T08:41:25;19.50;99.90
64396;DHT22;50717;53.360;6.290;2022-07-09T08:43:51;19.00;99.90
64396;DHT22;50717;53.360;6.290;2022-07-09T08:46:17;19.00;99.90
64396;DHT22;50717;53.360;6.290;2022-07-09T08:48:44;19.40;99.90
64396;DHT22;50717;53.360;6.290;2022-07-09T08:51:10;19.60;99.90
64396;DHT22;50717;53.360;6.290;2022-07-09T08:53:39;19.90;99.90
64396;DHT22;50717;53.360;6.290;2022-07-09T08:56:05;19.80;99.90
64396;DHT22;50717;53.360;6.290;2022-07-09T08:58:31;19.70;99.90
64396;DHT22;50717;53.360;6.290;2022-07-09T09:00:56;19.70;99.90
64396;DHT22;50717;53.360;6.290;2022-07-09T09:03:24;19.70;99.90
64396;DHT22;50717;53.360;6.290;2022-07-09T09:06:02;19.30;99.90
64396;DHT22;50717;53.360;6.290;2022-07-09T09:08:32;19.40;99.90
64396;DHT22;50717;53.360;6.290;2022-07-09T09:10:58;19.90;99.90
64396;DHT22;50717;53.360;6.290;2022-07-09T09:13:24;19.80;99.90
64396;DHT22;50717;53.360;6.290;2022-07-09T09:15:49;19.90;99.90
64396;DHT22;50717;53.360;6.290;2022-07-09T09:18:16;20.10;99.90
64396;DHT22;50717;53.360;6.290;2022-07-09T09:20:44;19.80;99.90
64396;DHT22;50717;53.360;6.290;2022-07-09T09:23:15;19.90;99.90
64396;DHT22;50717;53.360;6.290;2022-07-09T09:25:40;20.30;99.90
64396;DHT22;50717;53.360;6.290;2022-07-09T09:28:07;20.20;99.90
64396;DHT22;50717;53.360;6.290;2022-07-09T09:30:39;20.10;99.90
64396;DHT22;50717;53.360;6.290;2022-07-09T09:33:05;19.90;99.90
64396;DHT22;50717;53.360;6.290;2022-07-09T09:35:34;20.10;99.90
64396;DHT22;50717;53.360;6.290;2022-07-09T09:38:00;20.30;99.90
64396;DHT22;50717;53.360;6.290;2022-07-09T09:40:26;20.20;99.90
64396;DHT22;50717;53.360;6.290;2022-07-09T09:42:52;19.80;99.90
64396;DHT22;50717;53.360;6.290;2022-07-09T09:45:23;19.10;99.90
64396;DHT22;50717;53.360;6.290;2022-07-09T09:47:50;18.50;99.90
64396;DHT22;50717;53.360;6.290;2022-07-09T09:50:16;18.30;99.90
64396;DHT22;50717;53.360;6.290;2022-07-09T09:52:42;17.60;99.90
64396;DHT22;50717;53.360;6.290;2022-07-09T09:55:09;17.50;99.90
64396;DHT22;50717;53.360;6.290;2022-07-09T09:57:35;17.50;99.90
64396;DHT22;50717;53.360;6.290;2022-07-09T10:00:01;17.90;99.90
64396;DHT22;50717;53.360;6.290;2022-07-09T10:02:27;17.30;99.90
64396;DHT22;50717;53.360;6.290;2022-07-09T10:04:53;17.60;99.90
64396;DHT22;50717;53.360;6.290;2022-07-09T10:07:19;17.60;99.90
64396;DHT22;50717;53.360;6.290;2022-07-09T10:09:58;17.90;99.90
64396;DHT22;50717;53.360;6.290;2022-07-09T10:14:53;18.40;99.90
64396;DHT22;50717;53.360;6.290;2022-07-09T10:17:18;18.60;99.90
64396;DHT22;50717;53.360;6.290;2022-07-09T10:19:57;18.40;99.90
64396;DHT22;50717;53.360;6.290;2022-07-09T10:22:39;18.40;99.90
64396;DHT22;50717;53.360;6.290;2022-07-09T10:25:08;18.80;99.90
64396;DHT22;50717;53.360;6.290;2022-07-09T10:27:44;18.70;99.90
64396;DHT22;50717;53.360;6.290;2022-07-09T10:30:23;19.40;99.90
64396;DHT22;50717;53.360;6.290;2022-07-09T10:33:51;19.20;99.90
64396;DHT22;50717;53.360;6.290;2022-07-09T10:35:48;19.30;99.90
64396;DHT22;50717;53.360;6.290;2022-07-09T10:38:15;19.00;99.90
64396;DHT22;50717;53.360;6.290;2022-07-09T10:40:45;18.80;99.90
64396;DHT22;50717;53.360;6.290;2022-07-09T10:43:11;19.20;99.90
64396;DHT22;50717;53.360;6.290;2022-07-09T10:45:40;19.10;99.90
64396;DHT22;50717;53.360;6.290;2022-07-09T10:48:07;19.50;99.90
64396;DHT22;50717;53.360;6.290;2022-07-09T10:50:35;19.60;99.90
64396;DHT22;50717;53.360;6.290;2022-07-09T10:53:02;19.30;99.90
64396;DHT22;50717;53.360;6.290;2022-07-09T10:55:28;19.40;99.90
64396;DHT22;50717;53.360;6.290;2022-07-09T10:57:54;19.30;99.90
64396;DHT22;50717;53.360;6.290;2022-07-09T11:00:24;19.40;99.90
64396;DHT22;50717;53.360;6.290;2022-07-09T11:02:57;19.10;99.90
64396;DHT22;50717;53.360;6.290;2022-07-09T11:05:24;19.10;99.90
64396;DHT22;50717;53.360;6.290;2022-07-09T11:07:53;19.20;99.90
64396;DHT22;50717;53.360;6.290;2022-07-09T11:10:19;18.90;99.90
64396;DHT22;50717;53.360;6.290;2022-07-09T11:12:48;19.30;99.90
64396;DHT22;50717;53.360;6.290;2022-07-09T11:15:17;19.30;99.90
64396;DHT22;50717;53.360;6.290;2022-07-09T11:17:43;19.20;99.90
64396;DHT22;50717;53.360;6.290;2022-07-09T11:20:12;19.20;99.90
64396;DHT22;50717;53.360;6.290;2022-07-09T11:22:37;19.30;99.90
64396;DHT22;50717;53.360;6.290;2022-07-09T11:25:03;19.30;99.90
64396;DHT22;50717;53.360;6.290;2022-07-09T11:27:28;20.00;99.90
64396;DHT22;50717;53.360;6.290;2022-07-09T11:29:54;19.80;99.90
64396;DHT22;50717;53.360;6.290;2022-07-09T11:32:20;19.70;99.90
64396;DHT22;50717;53.360;6.290;2022-07-09T11:34:49;20.10;99.90
64396;DHT22;50717;53.360;6.290;2022-07-09T11:37:21;20.00;99.90
64396;DHT22;50717;53.360;6.290;2022-07-09T11:39:50;20.20;99.90
64396;DHT22;50717;53.360;6.290;2022-07-09T11:42:19;19.70;99.90
64396;DHT22;50717;53.360;6.290;2022-07-09T11:44:55;20.10;99.90
64396;DHT22;50717;53.360;6.290;2022-07-09T11:47:30;19.60;99.90
64396;DHT22;50717;53.360;6.290;2022-07-09T11:49:56;20.00;99.90
64396;DHT22;50717;53.360;6.290;2022-07-09T11:52:29;19.80;99.90
64396;DHT22;50717;53.360;6.290;2022-07-09T11:57:20;19.20;99.90
64396;DHT22;50717;53.360;6.290;2022-07-09T11:59:47;19.50;99.90
64396;DHT22;50717;53.360;6.290;2022-07-09T12:02:22;19.30;99.90
64396;DHT22;50717;53.360;6.290;2022-07-09T12:04:47;19.30;99.90
64396;DHT22;50717;53.360;6.290;2022-07-09T12:07:13;19.80;99.90
64396;DHT22;50717;53.360;6.290;2022-07-09T12:09:38;19.50;99.90
64396;DHT22;50717;53.360;6.290;2022-07-09T12:12:04;19.80;99.90
64396;DHT22;50717;53.360;6.290;2022-07-09T12:14:30;19.70;99.90
64396;DHT22;50717;53.360;6.290;2022-07-09T12:16:56;19.50;99.90
64396;DHT22;50717;53.360;6.290;2022-07-09T12:19:22;19.40;99.90
64396;DHT22;50717;53.360;6.290;2022-07-09T12:21:47;19.40;99.90
64396;DHT22;50717;53.360;6.290;2022-07-09T12:24:13;19.30;99.90
64396;DHT22;50717;53.360;6.290;2022-07-09T12:26:39;19.20;99.90
64396;DHT22;50717;53.360;6.290;2022-07-09T12:29:04;19.40;99.90
64396;DHT22;50717;53.360;6.290;2022-07-09T12:31:30;19.50;99.90
64396;DHT22;50717;53.360;6.290;2022-07-09T12:33:55;19.40;99.90
64396;DHT22;50717;53.360;6.290;2022-07-09T12:36:21;19.20;99.90
64396;DHT22;50717;53.360;6.290;2022-07-09T12:38:46;19.70;99.90
64396;DHT22;50717;53.360;6.290;2022-07-09T12:41:12;19.60;99.90
64396;DHT22;50717;53.360;6.290;2022-07-09T12:43:37;19.10;99.90
64396;DHT22;50717;53.360;6.290;2022-07-09T12:46:03;19.50;99.90
64396;DHT22;50717;53.360;6.290;2022-07-09T12:48:29;19.60;99.90
64396;DHT22;50717;53.360;6.290;2022-07-09T12:50:54;19.70;99.90
64396;DHT22;50717;53.360;6.290;2022-07-09T12:53:20;19.60;99.90
64396;DHT22;50717;53.360;6.290;2022-07-09T12:55:45;19.50;99.90
64396;DHT22;50717;53.360;6.290;2022-07-09T12:58:12;20.20;99.90
64396;DHT22;50717;53.360;6.290;2022-07-09T13:00:38;20.20;99.90
64396;DHT22;50717;53.360;6.290;2022-07-09T13:03:03;19.90;99.90
64396;DHT22;50717;53.360;6.290;2022-07-09T13:05:29;19.30;99.90
64396;DHT22;50717;53.360;6.290;2022-07-09T13:07:54;20.40;99.90
64396;DHT22;50717;53.360;6.290;2022-07-09T13:10:20;19.80;99.90
64396;DHT22;50717;53.360;6.290;2022-07-09T13:12:46;20.00;99.90
64396;DHT22;50717;53.360;6.290;2022-07-09T13:15:13;19.80;99.90
64396;DHT22;50717;53.360;6.290;2022-07-09T13:17:38;19.80;99.90
64396;DHT22;50717;53.360;6.290;2022-07-09T13:20:05;20.30;99.90
64396;DHT22;50717;53.360;6.290;2022-07-09T13:22:31;20.10;99.90
64396;DHT22;50717;53.360;6.290;2022-07-09T13:24:56;20.00;99.90
64396;DHT22;50717;53.360;6.290;2022-07-09T13:27:22;19.40;99.90
64396;DHT22;50717;53.360;6.290;2022-07-09T13:29:48;19.00;99.90
64396;DHT22;50717;53.360;6.290;2022-07-09T13:32:13;18.80;99.90
64396;DHT22;50717;53.360;6.290;2022-07-09T13:34:39;18.60;99.90
64396;DHT22;50717;53.360;6.290;2022-07-09T13:37:04;18.70;99.90
64396;DHT22;50717;53.360;6.290;2022-07-09T13:39:30;18.80;99.90
64396;DHT22;50717;53.360;6.290;2022-07-09T13:41:55;18.50;99.90
64396;DHT22;50717;53.360;6.290;2022-07-09T13:44:21;18.60;99.90
64396;DHT22;50717;53.360;6.290;2022-07-09T13:46:46;18.50;99.90
64396;DHT22;50717;53.360;6.290;2022-07-09T13:49:12;18.40;99.90
64396;DHT22;50717;53.360;6.290;2022-07-09T13:51:38;18.60;99.90
64396;DHT22;50717;53.360;6.290;2022-07-09T13:54:03;18.70;99.90
64396;DHT22;50717;53.360;6.290;2022-07-09T13:56:30;18.40;99.90
64396;DHT22;50717;53.360;6.290;2022-07-09T13:58:55;18.70;99.90
64396;DHT22;50717;53.360;6.290;2022-07-09T14:01:21;18.70;99.90
64396;DHT22;50717;53.360;6.290;2022-07-09T14:03:46;18.80;99.90
64396;DHT22;50717;53.360;6.290;2022-07-09T14:06:12;19.00;99.90
64396;DHT22;50717;53.360;6.290;2022-07-09T14:08:38;19.20;99.90
64396;DHT22;50717;53.360;6.290;2022-07-09T14:11:04;19.40;99.90
64396;DHT22;50717;53.360;6.290;2022-07-09T14:13:29;20.10;99.90
64396;DHT22;50717;53.360;6.290;2022-07-09T14:15:56;19.90;99.90
64396;DHT22;50717;53.360;6.290;2022-07-09T14:18:22;20.20;99.90
64396;DHT22;50717;53.360;6.290;2022-07-09T14:20:47;20.20;99.90
64396;DHT22;50717;53.360;6.290;2022-07-09T14:23:14;19.80;99.90
64396;DHT22;50717;53.360;6.290;2022-07-09T14:25:39;19.70;99.90
64396;DHT22;50717;53.360;6.290;2022-07-09T14:28:05;19.80;99.90
64396;DHT22;50717;53.360;6.290;2022-07-09T14:30:31;19.90;99.90
64396;DHT22;50717;53.360;6.290;2022-07-09T14:32:58;20.10;99.90
64396;DHT22;50717;53.360;6.290;2022-07-09T14:35:25;19.90;99.90
64396;DHT22;50717;53.360;6.290;2022-07-09T14:37:50;21.10;99.90
64396;DHT22;50717;53.360;6.290;2022-07-09T14:40:16;20.70;99.90
64396;DHT22;50717;53.360;6.290;2022-07-09T14:42:42;21.60;99.90
64396;DHT22;50717;53.360;6.290;2022-07-09T14:45:07;20.50;99.90
64396;DHT22;50717;53.360;6.290;2022-07-09T14:47:33;20.00;99.90
64396;DHT22;50717;53.360;6.290;2022-07-09T14:49:58;20.30;99.90
64396;DHT22;50717;53.360;6.290;2022-07-09T14:52:24;20.50;99.90
64396;DHT22;50717;53.360;6.290;2022-07-09T14:54:49;20.60;99.90
64396;DHT22;50717;53.360;6.290;2022-07-09T14:57:15;21.00;99.90
64396;DHT22;50717;53.360;6.290;2022-07-09T14:59:41;20.40;99.90
64396;DHT22;50717;53.360;6.290;2022-07-09T15:02:06;20.60;99.90
64396;DHT22;50717;53.360;6.290;2022-07-09T15:04:32;20.30;99.90
64396;DHT22;50717;53.360;6.290;2022-07-09T15:06:57;20.60;99.90
64396;DHT22;50717;53.360;6.290;2022-07-09T15:09:23;20.80;99.90
64396;DHT22;50717;53.360;6.290;2022-07-09T15:11:48;20.30;99.90
64396;DHT22;50717;53.360;6.290;2022-07-09T15:14:14;19.90;99.90
64396;DHT22;50717;53.360;6.290;2022-07-09T15:16:40;20.20;99.90
64396;DHT22;50717;53.360;6.290;2022-07-09T15:19:06;20.00;99.90
64396;DHT22;50717;53.360;6.290;2022-07-09T15:21:31;20.20;99.90
64396;DHT22;50717;53.360;6.290;2022-07-09T15:23:57;20.00;99.90
64396;DHT22;50717;53.360;6.290;2022-07-09T15:26:22;19.60;99.90
64396;DHT22;50717;53.360;6.290;2022-07-09T15:28:48;19.10;99.90